sensor_id;sensor_type;location;lat;lon;timestamp;P1;durP1;ratioP1;P2;durP2;ratioP2
71462;SDS011;59266;52.608;13.260;2022-11-20T00:00:06;23.25;;;9.38;;
71462;SDS011;59266;52.608;13.260;2022-11-20T00:02:33;22.25;;;8.82;;
71462;SDS011;59266;52.608;13.260;2022-11-20T00:05:00;20.42;;;8.43;;
71462;SDS011;59266;52.608;13.260;2022-11-20T00:07:27;21.20;;;7.90;;
71462;SDS011;59266;52.608;13.260;2022-11-20T00:09:53;25.33;;;8.65;;
71462;SDS011;59266;52.608;13.260;2022-11-20T00:12:19;22.25;;;8.38;;
71462;SDS011;59266;52.608;13.260;2022-11-20T00:14:46;19.42;;;8.70;;
71462;SDS011;59266;52.608;13.260;2022-11-20T00:17:12;22.83;;;9.55;;
71462;SDS011;59266;52.608;13.260;2022-11-20T00:19:39;21.80;;;8.60;;
71462;SDS011;59266;52.608;13.260;2022-11-20T00:22:05;20.05;;;7.95;;
71462;SDS011;59266;52.608;13.260;2022-11-20T00:24:32;21.48;;;8.63;;
71462;SDS011;59266;52.608;13.260;2022-11-20T00:26:58;20.00;;;8.35;;
71462;SDS011;59266;52.608;13.260;2022-11-20T00:29:25;20.25;;;8.63;;
71462;SDS011;59266;52.608;13.260;2022-11-20T00:31:51;20.45;;;8.90;;
71462;SDS011;59266;52.608;13.260;2022-11-20T00:34:19;25.75;;;8.70;;
71462;SDS011;59266;52.608;13.260;2022-11-20T00:36:47;23.02;;;8.40;;
71462;SDS011;59266;52.608;13.260;2022-11-20T00:39:14;25.23;;;8.60;;
71462;SDS011;59266;52.608;13.260;2022-11-20T00:41:41;22.65;;;8.20;;
71462;SDS011;59266;52.608;13.260;2022-11-20T00:44:07;24.17;;;9.27;;
71462;SDS011;59266;52.608;13.260;2022-11-20T00:46:34;18.40;;;7.25;;
71462;SDS011;59266;52.608;13.260;2022-11-20T00:49:00;22.13;;;8.10;;
71462;SDS011;59266;52.608;13.260;2022-11-20T00:51:27;19.70;;;8.45;;
71462;SDS011;59266;52.608;13.260;2022-11-20T00:53:55;22.42;;;8.27;;
71462;SDS011;59266;52.608;13.260;2022-11-20T00:56:22;20.20;;;8.55;;
71462;SDS011;59266;52.608;13.260;2022-11-20T00:58:48;16.40;;;7.20;;
71462;SDS011;59266;52.608;13.260;2022-11-20T01:01:19;22.60;;;8.52;;
71462;SDS011;59266;52.608;13.260;2022-11-20T01:03:51;23.15;;;8.73;;
71462;SDS011;59266;52.608;13.260;2022-11-20T01:06:24;21.92;;;8.63;;
71462;SDS011;59266;52.608;13.260;2022-11-20T01:08:53;22.33;;;8.82;;
71462;SDS011;59266;52.608;13.260;2022-11-20T01:11:25;23.83;;;9.20;;
71462;SDS011;59266;52.608;13.260;2022-11-20T01:13:53;21.40;;;8.73;;
71462;SDS011;59266;52.608;13.260;2022-11-20T01:16:22;22.17;;;7.85;;
71462;SDS011;59266;52.608;13.260;2022-11-20T01:18:51;20.13;;;8.48;;
71462;SDS011;59266;52.608;13.260;2022-11-20T01:21:20;19.45;;;8.43;;
71462;SDS011;59266;52.608;13.260;2022-11-20T01:23:50;21.02;;;7.90;;
71462;SDS011;59266;52.608;13.260;2022-11-20T01:26:18;19.70;;;7.75;;
71462;SDS011;59266;52.608;13.260;2022-11-20T01:28:46;17.00;;;7.88;;
71462;SDS011;59266;52.608;13.260;2022-11-20T01:31:14;20.13;;;7.78;;
71462;SDS011;59266;52.608;13.260;2022-11-20T01:33:43;19.48;;;8.27;;
71462;SDS011;59266;52.608;13.260;2022-11-20T01:36:11;21.67;;;8.50;;
71462;SDS011;59266;52.608;13.260;2022-11-20T01:38:38;20.33;;;8.45;;
71462;SDS011;59266;52.608;13.260;2022-11-20T01:41:05;21.17;;;8.63;;
71462;SDS011;59266;52.608;13.260;2022-11-20T01:43:33;17.08;;;7.57;;
71462;SDS011;59266;52.608;13.260;2022-11-20T01:48:46;19.55;;;8.02;;
71462;SDS011;59266;52.608;13.260;2022-11-20T01:51:17;22.52;;;8.60;;
71462;SDS011;59266;52.608;13.260;2022-11-20T01:53:48;24.13;;;8.63;;
71462;SDS011;59266;52.608;13.260;2022-11-20T01:56:16;21.52;;;8.93;;
71462;SDS011;59266;52.608;13.260;2022-11-20T01:58:45;21.88;;;8.18;;
71462;SDS011;59266;52.608;13.260;2022-11-20T02:01:16;19.98;;;7.50;;
71462;SDS011;59266;52.608;13.260;2022-11-20T02:03:43;22.58;;;8.35;;
71462;SDS011;59266;52.608;13.260;2022-11-20T02:06:23;19.55;;;8.25;;
71462;SDS011;59266;52.608;13.260;2022-11-20T02:08:51;24.08;;;9.00;;
71462;SDS011;59266;52.608;13.260;2022-11-20T02:11:18;20.10;;;8.45;;
71462;SDS011;59266;52.608;13.260;2022-11-20T02:13:45;24.02;;;9.23;;
71462;SDS011;59266;52.608;13.260;2022-11-20T02:18:50;21.50;;;8.48;;
71462;SDS011;59266;52.608;13.260;2022-11-20T02:21:23;20.45;;;9.23;;
71462;SDS011;59266;52.608;13.260;2022-11-20T02:24:03;18.75;;;8.30;;
71462;SDS011;59266;52.608;13.260;2022-11-20T02:26:34;21.10;;;8.70;;
71462;SDS011;59266;52.608;13.260;2022-11-20T02:29:24;21.27;;;8.25;;
71462;SDS011;59266;52.608;13.260;2022-11-20T02:31:53;21.02;;;8.57;;
71462;SDS011;59266;52.608;13.260;2022-11-20T02:34:22;18.65;;;8.05;;
71462;SDS011;59266;52.608;13.260;2022-11-20T02:36:49;23.08;;;9.38;;
71462;SDS011;59266;52.608;13.260;2022-11-20T02:39:18;22.75;;;8.80;;
71462;SDS011;59266;52.608;13.260;2022-11-20T02:41:47;21.77;;;8.68;;
71462;SDS011;59266;52.608;13.260;2022-11-20T02:44:13;21.45;;;8.70;;
71462;SDS011;59266;52.608;13.260;2022-11-20T02:46:40;28.33;;;9.35;;
71462;SDS011;59266;52.608;13.260;2022-11-20T02:49:06;21.08;;;9.10;;
71462;SDS011;59266;52.608;13.260;2022-11-20T02:51:33;20.85;;;8.85;;
71462;SDS011;59266;52.608;13.260;2022-11-20T02:53:59;22.70;;;9.40;;
71462;SDS011;59266;52.608;13.260;2022-11-20T02:56:26;24.20;;;9.50;;
71462;SDS011;59266;52.608;13.260;2022-11-20T02:58:54;21.20;;;8.88;;
71462;SDS011;59266;52.608;13.260;2022-11-20T03:01:21;22.10;;;9.63;;
71462;SDS011;59266;52.608;13.260;2022-11-20T03:03:48;22.08;;;9.65;;
71462;SDS011;59266;52.608;13.260;2022-11-20T03:06:15;21.52;;;8.93;;
71462;SDS011;59266;52.608;13.260;2022-11-20T03:08:43;22.38;;;9.13;;
71462;SDS011;59266;52.608;13.260;2022-11-20T03:11:09;20.38;;;9.15;;
71462;SDS011;59266;52.608;13.260;2022-11-20T03:13:37;22.52;;;9.25;;
71462;SDS011;59266;52.608;13.260;2022-11-20T03:16:07;23.35;;;9.25;;
71462;SDS011;59266;52.608;13.260;2022-11-20T03:18:38;25.30;;;9.32;;
71462;SDS011;59266;52.608;13.260;2022-11-20T03:21:06;24.40;;;8.63;;
71462;SDS011;59266;52.608;13.260;2022-11-20T03:23:33;22.23;;;9.00;;
71462;SDS011;59266;52.608;13.260;2022-11-20T03:26:07;22.95;;;9.55;;
71462;SDS011;59266;52.608;13.260;2022-11-20T03:28:46;22.95;;;9.43;;
71462;SDS011;59266;52.608;13.260;2022-11-20T03:31:22;21.17;;;9.27;;
71462;SDS011;59266;52.608;13.260;2022-11-20T03:33:50;20.70;;;8.85;;
71462;SDS011;59266;52.608;13.260;2022-11-20T03:36:17;27.05;;;10.60;;
71462;SDS011;59266;52.608;13.260;2022-11-20T03:38:45;24.17;;;9.38;;
71462;SDS011;59266;52.608;13.260;2022-11-20T03:41:19;20.98;;;9.50;;
71462;SDS011;59266;52.608;13.260;2022-11-20T03:43:48;22.98;;;8.70;;
71462;SDS011;59266;52.608;13.260;2022-11-20T03:46:15;21.38;;;9.63;;
71462;SDS011;59266;52.608;13.260;2022-11-20T03:48:41;22.50;;;9.45;;
71462;SDS011;59266;52.608;13.260;2022-11-20T03:51:19;22.95;;;8.98;;
71462;SDS011;59266;52.608;13.260;2022-11-20T03:53:48;25.17;;;9.50;;
71462;SDS011;59266;52.608;13.260;2022-11-20T03:56:16;25.67;;;10.60;;
71462;SDS011;59266;52.608;13.260;2022-11-20T03:58:44;23.52;;;9.25;;
71462;SDS011;59266;52.608;13.260;2022-11-20T04:01:11;23.67;;;10.02;;
71462;SDS011;59266;52.608;13.260;2022-11-20T04:03:40;23.65;;;9.50;;
71462;SDS011;59266;52.608;13.260;2022-11-20T04:08:34;21.13;;;8.73;;
71462;SDS011;59266;52.608;13.260;2022-11-20T04:11:35;24.73;;;9.60;;
71462;SDS011;59266;52.608;13.260;2022-11-20T04:13:57;28.10;;;9.70;;
71462;SDS011;59266;52.608;13.260;2022-11-20T04:16:25;21.50;;;9.43;;
71462;SDS011;59266;52.608;13.260;2022-11-20T04:18:53;23.40;;;9.50;;
71462;SDS011;59266;52.608;13.260;2022-11-20T04:21:20;24.50;;;9.18;;
71462;SDS011;59266;52.608;13.260;2022-11-20T04:23:47;23.52;;;8.98;;
71462;SDS011;59266;52.608;13.260;2022-11-20T04:26:14;25.40;;;9.93;;
71462;SDS011;59266;52.608;13.260;2022-11-20T04:28:41;22.77;;;9.48;;
71462;SDS011;59266;52.608;13.260;2022-11-20T04:31:17;23.70;;;9.75;;
71462;SDS011;59266;52.608;13.260;2022-11-20T04:33:45;25.33;;;10.23;;
71462;SDS011;59266;52.608;13.260;2022-11-20T04:36:13;21.05;;;9.45;;
71462;SDS011;59266;52.608;13.260;2022-11-20T04:38:40;26.13;;;9.98;;
71462;SDS011;59266;52.608;13.260;2022-11-20T04:41:08;22.92;;;9.43;;
71462;SDS011;59266;52.608;13.260;2022-11-20T04:43:40;27.95;;;10.80;;
71462;SDS011;59266;52.608;13.260;2022-11-20T04:46:06;23.88;;;9.35;;
71462;SDS011;59266;52.608;13.260;2022-11-20T04:48:34;23.65;;;9.75;;
71462;SDS011;59266;52.608;13.260;2022-11-20T04:51:02;24.77;;;10.27;;
71462;SDS011;59266;52.608;13.260;2022-11-20T04:53:29;23.45;;;9.60;;
71462;SDS011;59266;52.608;13.260;2022-11-20T04:55:59;24.33;;;10.35;;
71462;SDS011;59266;52.608;13.260;2022-11-20T04:58:27;24.20;;;10.25;;
71462;SDS011;59266;52.608;13.260;2022-11-20T05:01:00;24.83;;;9.48;;
71462;SDS011;59266;52.608;13.260;2022-11-20T05:03:38;21.77;;;9.02;;
71462;SDS011;59266;52.608;13.260;2022-11-20T05:06:08;24.58;;;9.52;;
71462;SDS011;59266;52.608;13.260;2022-11-20T05:08:35;24.50;;;10.73;;
71462;SDS011;59266;52.608;13.260;2022-11-20T05:11:09;23.42;;;10.02;;
71462;SDS011;59266;52.608;13.260;2022-11-20T05:13:37;23.52;;;10.00;;
71462;SDS011;59266;52.608;13.260;2022-11-20T05:16:07;24.58;;;10.60;;
71462;SDS011;59266;52.608;13.260;2022-11-20T05:18:38;23.88;;;10.10;;
71462;SDS011;59266;52.608;13.260;2022-11-20T05:21:05;23.45;;;10.10;;
71462;SDS011;59266;52.608;13.260;2022-11-20T05:23:32;24.33;;;10.07;;
71462;SDS011;59266;52.608;13.260;2022-11-20T05:26:00;23.67;;;11.05;;
71462;SDS011;59266;52.608;13.260;2022-11-20T05:28:27;26.70;;;10.90;;
71462;SDS011;59266;52.608;13.260;2022-11-20T05:30:55;24.08;;;10.65;;
71462;SDS011;59266;52.608;13.260;2022-11-20T05:33:21;27.67;;;10.20;;
71462;SDS011;59266;52.608;13.260;2022-11-20T05:35:48;29.17;;;11.43;;
71462;SDS011;59266;52.608;13.260;2022-11-20T05:38:14;23.95;;;9.82;;
71462;SDS011;59266;52.608;13.260;2022-11-20T05:40:41;26.52;;;10.77;;
71462;SDS011;59266;52.608;13.260;2022-11-20T05:43:08;25.65;;;10.32;;
71462;SDS011;59266;52.608;13.260;2022-11-20T05:45:34;23.58;;;10.25;;
71462;SDS011;59266;52.608;13.260;2022-11-20T05:48:01;24.33;;;10.50;;
71462;SDS011;59266;52.608;13.260;2022-11-20T05:50:27;23.27;;;10.35;;
71462;SDS011;59266;52.608;13.260;2022-11-20T05:52:54;29.80;;;10.43;;
71462;SDS011;59266;52.608;13.260;2022-11-20T05:55:24;28.58;;;11.70;;
71462;SDS011;59266;52.608;13.260;2022-11-20T05:57:52;25.25;;;10.15;;
71462;SDS011;59266;52.608;13.260;2022-11-20T06:00:20;26.08;;;10.82;;
71462;SDS011;59266;52.608;13.260;2022-11-20T06:02:47;24.27;;;10.48;;
71462;SDS011;59266;52.608;13.260;2022-11-20T06:05:14;32.10;;;11.65;;
71462;SDS011;59266;52.608;13.260;2022-11-20T06:07:40;26.88;;;11.35;;
71462;SDS011;59266;52.608;13.260;2022-11-20T06:10:07;22.63;;;9.80;;
71462;SDS011;59266;52.608;13.260;2022-11-20T06:12:34;26.15;;;11.07;;
71462;SDS011;59266;52.608;13.260;2022-11-20T06:15:00;29.00;;;10.85;;
71462;SDS011;59266;52.608;13.260;2022-11-20T06:17:27;23.20;;;10.20;;
71462;SDS011;59266;52.608;13.260;2022-11-20T06:19:53;26.05;;;10.45;;
71462;SDS011;59266;52.608;13.260;2022-11-20T06:22:20;25.75;;;10.38;;
71462;SDS011;59266;52.608;13.260;2022-11-20T06:24:47;28.20;;;11.27;;
71462;SDS011;59266;52.608;13.260;2022-11-20T06:27:13;29.42;;;10.82;;
71462;SDS011;59266;52.608;13.260;2022-11-20T06:29:40;30.50;;;10.90;;
71462;SDS011;59266;52.608;13.260;2022-11-20T06:32:06;28.58;;;11.18;;
71462;SDS011;59266;52.608;13.260;2022-11-20T06:34:33;30.73;;;10.70;;
71462;SDS011;59266;52.608;13.260;2022-11-20T06:36:59;27.10;;;10.80;;
71462;SDS011;59266;52.608;13.260;2022-11-20T06:39:26;30.23;;;10.65;;
71462;SDS011;59266;52.608;13.260;2022-11-20T06:41:52;25.38;;;11.25;;
71462;SDS011;59266;52.608;13.260;2022-11-20T06:44:24;25.38;;;10.05;;
71462;SDS011;59266;52.608;13.260;2022-11-20T06:46:50;26.40;;;10.40;;
71462;SDS011;59266;52.608;13.260;2022-11-20T06:49:17;28.88;;;11.15;;
71462;SDS011;59266;52.608;13.260;2022-11-20T06:51:44;26.13;;;10.82;;
71462;SDS011;59266;52.608;13.260;2022-11-20T06:54:10;26.95;;;10.55;;
71462;SDS011;59266;52.608;13.260;2022-11-20T06:56:37;31.50;;;11.07;;
71462;SDS011;59266;52.608;13.260;2022-11-20T06:59:05;25.45;;;10.25;;
71462;SDS011;59266;52.608;13.260;2022-11-20T07:01:32;29.92;;;11.45;;
71462;SDS011;59266;52.608;13.260;2022-11-20T07:03:58;32.63;;;13.90;;
71462;SDS011;59266;52.608;13.260;2022-11-20T07:06:25;30.02;;;12.70;;
71462;SDS011;59266;52.608;13.260;2022-11-20T07:08:51;32.05;;;13.55;;
71462;SDS011;59266;52.608;13.260;2022-11-20T07:11:23;41.03;;;15.98;;
71462;SDS011;59266;52.608;13.260;2022-11-20T07:13:52;32.80;;;13.73;;
71462;SDS011;59266;52.608;13.260;2022-11-20T07:16:18;32.15;;;13.63;;
71462;SDS011;59266;52.608;13.260;2022-11-20T07:18:47;27.15;;;12.05;;
71462;SDS011;59266;52.608;13.260;2022-11-20T07:21:16;27.45;;;11.15;;
71462;SDS011;59266;52.608;13.260;2022-11-20T07:23:43;31.42;;;12.88;;
71462;SDS011;59266;52.608;13.260;2022-11-20T07:26:10;30.23;;;11.65;;
71462;SDS011;59266;52.608;13.260;2022-11-20T07:28:37;25.33;;;10.80;;
71462;SDS011;59266;52.608;13.260;2022-11-20T07:31:04;26.85;;;10.85;;
71462;SDS011;59266;52.608;13.260;2022-11-20T07:33:34;28.30;;;11.20;;
71462;SDS011;59266;52.608;13.260;2022-11-20T07:36:00;26.98;;;10.77;;
71462;SDS011;59266;52.608;13.260;2022-11-20T07:38:27;27.73;;;11.10;;
71462;SDS011;59266;52.608;13.260;2022-11-20T07:40:56;27.23;;;10.70;;
71462;SDS011;59266;52.608;13.260;2022-11-20T07:43:24;24.58;;;10.10;;
71462;SDS011;59266;52.608;13.260;2022-11-20T07:45:51;29.50;;;11.45;;
71462;SDS011;59266;52.608;13.260;2022-11-20T07:48:17;26.42;;;9.93;;
71462;SDS011;59266;52.608;13.260;2022-11-20T07:50:44;24.20;;;10.02;;
71462;SDS011;59266;52.608;13.260;2022-11-20T07:53:10;27.58;;;11.88;;
71462;SDS011;59266;52.608;13.260;2022-11-20T07:55:39;27.35;;;11.38;;
71462;SDS011;59266;52.608;13.260;2022-11-20T07:58:08;25.08;;;11.05;;
71462;SDS011;59266;52.608;13.260;2022-11-20T08:00:34;26.55;;;11.05;;
71462;SDS011;59266;52.608;13.260;2022-11-20T08:03:02;33.00;;;11.02;;
71462;SDS011;59266;52.608;13.260;2022-11-20T08:05:32;24.80;;;10.30;;
71462;SDS011;59266;52.608;13.260;2022-11-20T08:07:59;28.80;;;12.00;;
71462;SDS011;59266;52.608;13.260;2022-11-20T08:10:26;26.27;;;12.00;;
71462;SDS011;59266;52.608;13.260;2022-11-20T08:12:52;26.35;;;11.00;;
71462;SDS011;59266;52.608;13.260;2022-11-20T08:15:38;28.70;;;12.05;;
71462;SDS011;59266;52.608;13.260;2022-11-20T08:18:06;31.65;;;13.70;;
71462;SDS011;59266;52.608;13.260;2022-11-20T08:20:58;28.75;;;11.63;;
71462;SDS011;59266;52.608;13.260;2022-11-20T08:23:27;29.85;;;12.40;;
71462;SDS011;59266;52.608;13.260;2022-11-20T08:25:54;25.65;;;9.60;;
71462;SDS011;59266;52.608;13.260;2022-11-20T08:28:20;27.23;;;10.13;;
71462;SDS011;59266;52.608;13.260;2022-11-20T08:30:48;27.27;;;11.77;;
71462;SDS011;59266;52.608;13.260;2022-11-20T08:33:15;27.65;;;11.50;;
71462;SDS011;59266;52.608;13.260;2022-11-20T08:35:43;27.02;;;11.50;;
71462;SDS011;59266;52.608;13.260;2022-11-20T08:38:10;25.73;;;10.57;;
71462;SDS011;59266;52.608;13.260;2022-11-20T08:40:36;24.05;;;10.82;;
71462;SDS011;59266;52.608;13.260;2022-11-20T08:43:03;26.20;;;11.30;;
71462;SDS011;59266;52.608;13.260;2022-11-20T08:45:29;25.70;;;10.45;;
71462;SDS011;59266;52.608;13.260;2022-11-20T08:48:00;29.05;;;10.90;;
71462;SDS011;59266;52.608;13.260;2022-11-20T08:50:27;28.25;;;10.75;;
71462;SDS011;59266;52.608;13.260;2022-11-20T08:52:54;29.42;;;11.05;;
71462;SDS011;59266;52.608;13.260;2022-11-20T08:55:23;27.25;;;11.35;;
71462;SDS011;59266;52.608;13.260;2022-11-20T08:57:49;26.67;;;10.13;;
71462;SDS011;59266;52.608;13.260;2022-11-20T09:00:16;27.42;;;11.15;;
71462;SDS011;59266;52.608;13.260;2022-11-20T09:02:43;27.75;;;11.38;;
71462;SDS011;59266;52.608;13.260;2022-11-20T09:05:10;26.33;;;10.70;;
71462;SDS011;59266;52.608;13.260;2022-11-20T09:07:36;26.98;;;10.55;;
71462;SDS011;59266;52.608;13.260;2022-11-20T09:10:03;24.77;;;10.68;;
71462;SDS011;59266;52.608;13.260;2022-11-20T09:12:49;24.58;;;11.02;;
71462;SDS011;59266;52.608;13.260;2022-11-20T09:15:17;31.40;;;10.48;;
71462;SDS011;59266;52.608;13.260;2022-11-20T09:17:53;25.70;;;10.13;;
71462;SDS011;59266;52.608;13.260;2022-11-20T09:20:23;24.70;;;10.30;;
71462;SDS011;59266;52.608;13.260;2022-11-20T09:22:50;25.25;;;11.18;;
71462;SDS011;59266;52.608;13.260;2022-11-20T09:25:17;25.80;;;11.05;;
71462;SDS011;59266;52.608;13.260;2022-11-20T09:27:44;24.05;;;10.60;;
71462;SDS011;59266;52.608;13.260;2022-11-20T09:30:13;24.02;;;9.95;;
71462;SDS011;59266;52.608;13.260;2022-11-20T09:32:41;27.63;;;11.52;;
71462;SDS011;59266;52.608;13.260;2022-11-20T09:35:08;23.25;;;9.52;;
71462;SDS011;59266;52.608;13.260;2022-11-20T09:37:35;22.95;;;10.10;;
71462;SDS011;59266;52.608;13.260;2022-11-20T09:40:01;23.10;;;9.30;;
71462;SDS011;59266;52.608;13.260;2022-11-20T09:42:47;24.85;;;10.23;;
71462;SDS011;59266;52.608;13.260;2022-11-20T09:48:29;25.00;;;10.43;;
71462;SDS011;59266;52.608;13.260;2022-11-20T09:56:37;22.25;;;9.88;;
71462;SDS011;59266;52.608;13.260;2022-11-20T09:59:23;27.02;;;9.85;;
71462;SDS011;59266;52.608;13.260;2022-11-20T10:01:57;28.92;;;10.23;;
71462;SDS011;59266;52.608;13.260;2022-11-20T10:04:25;22.80;;;9.10;;
71462;SDS011;59266;52.608;13.260;2022-11-20T10:07:06;22.58;;;8.95;;
71462;SDS011;59266;52.608;13.260;2022-11-20T10:09:57;24.02;;;10.00;;
71462;SDS011;59266;52.608;13.260;2022-11-20T10:12:27;24.13;;;10.13;;
71462;SDS011;59266;52.608;13.260;2022-11-20T10:15:19;22.83;;;10.05;;
71462;SDS011;59266;52.608;13.260;2022-11-20T10:21:16;25.02;;;9.75;;
71462;SDS011;59266;52.608;13.260;2022-11-20T10:30:03;23.05;;;9.65;;
71462;SDS011;59266;52.608;13.260;2022-11-20T10:32:36;22.15;;;8.90;;
71462;SDS011;59266;52.608;13.260;2022-11-20T10:35:25;23.45;;;9.27;;
71462;SDS011;59266;52.608;13.260;2022-11-20T10:37:56;17.05;;;8.38;;
71462;SDS011;59266;52.608;13.260;2022-11-20T10:40:34;20.98;;;9.10;;
71462;SDS011;59266;52.608;13.260;2022-11-20T10:43:08;18.23;;;8.63;;
71462;SDS011;59266;52.608;13.260;2022-11-20T10:48:25;19.58;;;9.13;;
71462;SDS011;59266;52.608;13.260;2022-11-20T10:53:38;21.77;;;9.85;;
71462;SDS011;59266;52.608;13.260;2022-11-20T10:56:15;23.08;;;9.25;;
71462;SDS011;59266;52.608;13.260;2022-11-20T11:01:19;20.75;;;8.68;;
71462;SDS011;59266;52.608;13.260;2022-11-20T11:03:50;19.05;;;9.18;;
71462;SDS011;59266;52.608;13.260;2022-11-20T11:06:37;20.52;;;8.50;;
71462;SDS011;59266;52.608;13.260;2022-11-20T11:09:11;21.65;;;8.57;;
71462;SDS011;59266;52.608;13.260;2022-11-20T11:11:42;17.58;;;8.18;;
71462;SDS011;59266;52.608;13.260;2022-11-20T11:14:10;20.50;;;9.02;;
71462;SDS011;59266;52.608;13.260;2022-11-20T11:16:52;17.98;;;8.52;;
71462;SDS011;59266;52.608;13.260;2022-11-20T11:19:20;19.42;;;8.45;;
71462;SDS011;59266;52.608;13.260;2022-11-20T11:21:49;20.23;;;8.80;;
71462;SDS011;59266;52.608;13.260;2022-11-20T11:24:22;19.85;;;8.50;;
71462;SDS011;59266;52.608;13.260;2022-11-20T11:27:12;20.15;;;9.05;;
71462;SDS011;59266;52.608;13.260;2022-11-20T11:29:43;21.83;;;9.35;;
71462;SDS011;59266;52.608;13.260;2022-11-20T11:34:59;21.52;;;9.15;;
71462;SDS011;59266;52.608;13.260;2022-11-20T11:37:27;22.00;;;8.93;;
71462;SDS011;59266;52.608;13.260;2022-11-20T11:42:53;19.08;;;8.10;;
71462;SDS011;59266;52.608;13.260;2022-11-20T11:45:23;19.40;;;8.13;;
71462;SDS011;59266;52.608;13.260;2022-11-20T11:47:50;18.83;;;8.77;;
71462;SDS011;59266;52.608;13.260;2022-11-20T11:50:21;20.77;;;7.80;;
71462;SDS011;59266;52.608;13.260;2022-11-20T11:53:01;19.10;;;8.30;;
71462;SDS011;59266;52.608;13.260;2022-11-20T11:58:46;20.30;;;7.57;;
71462;SDS011;59266;52.608;13.260;2022-11-20T12:12:47;19.55;;;7.97;;
71462;SDS011;59266;52.608;13.260;2022-11-20T12:15:32;23.13;;;9.05;;
71462;SDS011;59266;52.608;13.260;2022-11-20T12:18:00;18.38;;;8.15;;
71462;SDS011;59266;52.608;13.260;2022-11-20T12:20:29;18.73;;;8.10;;
71462;SDS011;59266;52.608;13.260;2022-11-20T12:23:05;21.00;;;8.23;;
71462;SDS011;59266;52.608;13.260;2022-11-20T12:25:40;18.50;;;8.07;;
71462;SDS011;59266;52.608;13.260;2022-11-20T12:28:18;23.55;;;8.85;;
71462;SDS011;59266;52.608;13.260;2022-11-20T12:31:14;18.98;;;7.57;;
71462;SDS011;59266;52.608;13.260;2022-11-20T12:34:17;21.10;;;8.18;;
71462;SDS011;59266;52.608;13.260;2022-11-20T12:37:21;19.85;;;7.40;;
71462;SDS011;59266;52.608;13.260;2022-11-20T12:40:07;18.13;;;7.18;;
71462;SDS011;59266;52.608;13.260;2022-11-20T12:48:38;20.20;;;8.80;;
71462;SDS011;59266;52.608;13.260;2022-11-20T12:51:20;17.05;;;7.28;;
71462;SDS011;59266;52.608;13.260;2022-11-20T12:56:28;16.60;;;7.07;;
71462;SDS011;59266;52.608;13.260;2022-11-20T13:02:25;17.60;;;7.63;;
71462;SDS011;59266;52.608;13.260;2022-11-20T13:07:45;18.20;;;7.47;;
71462;SDS011;59266;52.608;13.260;2022-11-20T13:10:18;16.85;;;7.97;;
71462;SDS011;59266;52.608;13.260;2022-11-20T13:12:57;18.65;;;7.38;;
71462;SDS011;59266;52.608;13.260;2022-11-20T13:15:58;19.95;;;8.23;;
71462;SDS011;59266;52.608;13.260;2022-11-20T13:18:33;17.95;;;8.25;;
71462;SDS011;59266;52.608;13.260;2022-11-20T13:21:18;18.48;;;7.70;;
71462;SDS011;59266;52.608;13.260;2022-11-20T13:23:47;24.73;;;8.73;;
71462;SDS011;59266;52.608;13.260;2022-11-20T13:28:59;19.70;;;7.93;;
71462;SDS011;59266;52.608;13.260;2022-11-20T13:31:39;18.20;;;7.63;;
71462;SDS011;59266;52.608;13.260;2022-11-20T13:34:11;20.05;;;8.48;;
71462;SDS011;59266;52.608;13.260;2022-11-20T13:36:50;17.73;;;8.07;;
71462;SDS011;59266;52.608;13.260;2022-11-20T13:39:25;21.63;;;8.25;;
71462;SDS011;59266;52.608;13.260;2022-11-20T13:41:57;20.98;;;8.68;;
71462;SDS011;59266;52.608;13.260;2022-11-20T13:44:37;21.95;;;8.43;;
71462;SDS011;59266;52.608;13.260;2022-11-20T13:47:19;19.05;;;8.90;;
71462;SDS011;59266;52.608;13.260;2022-11-20T13:49:50;21.73;;;9.50;;
71462;SDS011;59266;52.608;13.260;2022-11-20T13:55:18;20.27;;;9.00;;
71462;SDS011;59266;52.608;13.260;2022-11-20T14:00:48;21.05;;;8.32;;
71462;SDS011;59266;52.608;13.260;2022-11-20T14:03:24;20.70;;;8.48;;
71462;SDS011;59266;52.608;13.260;2022-11-20T14:08:47;21.60;;;8.25;;
71462;SDS011;59266;52.608;13.260;2022-11-20T14:11:16;19.00;;;8.65;;
71462;SDS011;59266;52.608;13.260;2022-11-20T14:13:57;20.00;;;8.40;;
71462;SDS011;59266;52.608;13.260;2022-11-20T14:16:26;22.13;;;8.25;;
71462;SDS011;59266;52.608;13.260;2022-11-20T14:18:55;18.17;;;8.18;;
71462;SDS011;59266;52.608;13.260;2022-11-20T14:21:23;19.67;;;8.23;;
71462;SDS011;59266;52.608;13.260;2022-11-20T14:23:52;19.05;;;8.15;;
71462;SDS011;59266;52.608;13.260;2022-11-20T14:26:20;19.38;;;8.13;;
71462;SDS011;59266;52.608;13.260;2022-11-20T14:28:49;20.20;;;8.45;;
71462;SDS011;59266;52.608;13.260;2022-11-20T14:31:19;20.42;;;8.25;;
71462;SDS011;59266;52.608;13.260;2022-11-20T14:33:50;21.02;;;8.40;;
71462;SDS011;59266;52.608;13.260;2022-11-20T14:36:21;20.23;;;9.05;;
71462;SDS011;59266;52.608;13.260;2022-11-20T14:38:49;22.42;;;8.95;;
71462;SDS011;59266;52.608;13.260;2022-11-20T14:41:21;22.35;;;9.43;;
71462;SDS011;59266;52.608;13.260;2022-11-20T14:43:56;20.67;;;7.80;;
71462;SDS011;59266;52.608;13.260;2022-11-20T14:46:24;21.63;;;8.13;;
71462;SDS011;59266;52.608;13.260;2022-11-20T14:48:51;19.52;;;8.85;;
71462;SDS011;59266;52.608;13.260;2022-11-20T14:51:26;24.13;;;8.70;;
71462;SDS011;59266;52.608;13.260;2022-11-20T14:54:16;22.70;;;9.10;;
71462;SDS011;59266;52.608;13.260;2022-11-20T14:56:57;23.08;;;9.95;;
71462;SDS011;59266;52.608;13.260;2022-11-20T14:59:29;18.13;;;8.32;;
71462;SDS011;59266;52.608;13.260;2022-11-20T15:02:04;22.98;;;10.00;;
71462;SDS011;59266;52.608;13.260;2022-11-20T15:04:32;22.40;;;8.32;;
71462;SDS011;59266;52.608;13.260;2022-11-20T15:06:59;26.05;;;9.95;;
71462;SDS011;59266;52.608;13.260;2022-11-20T15:09:25;21.42;;;9.27;;
71462;SDS011;59266;52.608;13.260;2022-11-20T15:11:56;23.20;;;9.60;;
71462;SDS011;59266;52.608;13.260;2022-11-20T15:14:25;26.30;;;10.82;;
71462;SDS011;59266;52.608;13.260;2022-11-20T15:16:53;19.38;;;8.20;;
71462;SDS011;59266;52.608;13.260;2022-11-20T15:19:21;19.83;;;8.32;;
71462;SDS011;59266;52.608;13.260;2022-11-20T15:21:49;19.77;;;8.20;;
71462;SDS011;59266;52.608;13.260;2022-11-20T15:24:16;24.80;;;11.55;;
71462;SDS011;59266;52.608;13.260;2022-11-20T15:26:42;19.38;;;8.88;;
71462;SDS011;59266;52.608;13.260;2022-11-20T15:29:09;21.88;;;8.93;;
71462;SDS011;59266;52.608;13.260;2022-11-20T15:31:38;20.10;;;8.13;;
71462;SDS011;59266;52.608;13.260;2022-11-20T15:34:09;16.90;;;7.63;;
71462;SDS011;59266;52.608;13.260;2022-11-20T15:36:38;21.90;;;10.25;;
71462;SDS011;59266;52.608;13.260;2022-11-20T15:39:05;19.48;;;8.30;;
71462;SDS011;59266;52.608;13.260;2022-11-20T15:41:33;21.83;;;8.18;;
71462;SDS011;59266;52.608;13.260;2022-11-20T15:44:00;18.27;;;8.55;;
71462;SDS011;59266;52.608;13.260;2022-11-20T15:46:28;22.30;;;9.35;;
71462;SDS011;59266;52.608;13.260;2022-11-20T15:48:59;18.63;;;7.65;;
71462;SDS011;59266;52.608;13.260;2022-11-20T15:53:54;25.17;;;7.97;;
71462;SDS011;59266;52.608;13.260;2022-11-20T15:56:21;23.45;;;9.32;;